createdAt,value
2018-07-17T00:01:36.006Z,17.10
2018-07-17T00:04:05.111Z,17.20
2018-07-17T00:06:34.168Z,17.30
2018-07-17T00:09:03.856Z,17.30
2018-07-17T00:11:32.940Z,17.30
2018-07-17T00:14:02.016Z,17.30
2018-07-17T00:16:31.072Z,17.20
2018-07-17T00:23:57.555Z,17.10
2018-07-17T00:28:55.328Z,16.90
2018-07-17T00:31:24.371Z,16.80
2018-07-17T00:33:53.457Z,16.80
2018-07-17T00:36:22.507Z,16.60
2018-07-17T00:38:51.584Z,16.50
2018-07-17T00:41:20.690Z,16.30
2018-07-17T00:43:49.731Z,16.20
2018-07-17T00:46:18.787Z,16.00
2018-07-17T00:48:47.868Z,15.90
2018-07-17T00:51:16.919Z,15.80
2018-07-17T00:53:45.987Z,15.70
2018-07-17T00:58:43.756Z,15.80
2018-07-17T01:01:18.266Z,15.90
2018-07-17T01:03:52.852Z,15.70
2018-07-17T01:06:27.264Z,15.60
2018-07-17T01:09:01.720Z,15.50
2018-07-17T01:11:36.367Z,15.30
2018-07-17T01:14:09.756Z,15.30
2018-07-17T01:16:38.788Z,15.30
2018-07-17T01:21:36.491Z,15.40
2018-07-17T01:24:05.788Z,15.50
2018-07-17T01:26:34.839Z,15.50
2018-07-17T01:29:03.883Z,15.50
2018-07-17T01:31:32.936Z,15.30
2018-07-17T01:34:01.971Z,15.30
2018-07-17T01:36:31.028Z,15.30
2018-07-17T01:39:00.112Z,15.40
2018-07-17T01:41:29.179Z,15.30
2018-07-17T01:43:58.212Z,15.30
2018-07-17T01:46:27.298Z,15.20
2018-07-17T01:48:56.332Z,15.20
2018-07-17T01:53:54.035Z,15.00
2018-07-17T01:56:23.100Z,14.80
2018-07-17T02:01:20.864Z,14.70
2018-07-17T02:03:49.904Z,14.60
2018-07-17T02:06:19.050Z,14.60
2018-07-17T02:08:48.083Z,14.50
2018-07-17T02:13:45.815Z,14.50
2018-07-17T02:16:14.864Z,14.40
2018-07-17T02:21:12.603Z,14.20
2018-07-17T02:23:41.801Z,14.10
2018-07-17T02:26:10.897Z,14.20
2018-07-17T02:28:40.060Z,14.30
2018-07-17T02:31:09.140Z,14.30
2018-07-17T02:33:38.181Z,14.20
2018-07-17T02:36:07.236Z,14.10
2018-07-17T02:38:36.260Z,14.10
2018-07-17T02:41:05.317Z,14.00
2018-07-17T02:46:03.031Z,13.90
2018-07-17T02:48:32.080Z,14.10
2018-07-17T02:51:01.132Z,14.20
2018-07-17T02:53:30.172Z,14.10
2018-07-17T02:58:27.882Z,13.90
2018-07-17T03:00:56.932Z,13.70
2018-07-17T03:03:25.967Z,13.70
2018-07-17T03:05:55.020Z,13.60
2018-07-17T03:08:24.075Z,13.60
2018-07-17T03:10:53.148Z,13.60
2018-07-17T03:13:22.184Z,13.80
2018-07-17T03:15:51.244Z,13.80
2018-07-17T03:18:20.276Z,13.90
2018-07-17T03:20:49.331Z,13.80
2018-07-17T03:23:18.368Z,13.70
2018-07-17T03:25:47.423Z,13.70
2018-07-17T03:28:16.464Z,13.80
2018-07-17T03:30:45.519Z,13.70
2018-07-17T03:33:14.550Z,13.60
2018-07-17T03:35:43.607Z,13.50
2018-07-17T03:38:12.752Z,13.40
2018-07-17T03:40:41.849Z,13.40
2018-07-17T03:43:10.871Z,13.40
2018-07-17T03:45:39.941Z,13.40
2018-07-17T03:48:08.981Z,13.40
2018-07-17T03:50:38.020Z,13.50
2018-07-17T03:53:07.127Z,13.40
2018-07-17T03:55:36.288Z,13.50
2018-07-17T03:58:05.336Z,13.40
2018-07-17T04:00:34.377Z,13.40
2018-07-17T04:03:03.432Z,13.50
2018-07-17T04:08:01.379Z,13.50
2018-07-17T04:10:30.439Z,13.60
2018-07-17T04:12:59.515Z,13.60
2018-07-17T04:15:28.556Z,13.70
2018-07-17T04:17:57.635Z,13.80
2018-07-17T04:20:26.672Z,13.90
2018-07-17T04:22:55.744Z,13.90
2018-07-17T04:25:24.868Z,14.10
2018-07-17T04:27:53.961Z,14.20
2018-07-17T04:30:23.004Z,14.20
2018-07-17T04:32:52.068Z,14.30
2018-07-17T04:35:21.107Z,14.40
2018-07-17T04:37:50.177Z,14.40
2018-07-17T04:42:47.907Z,14.70
2018-07-17T04:45:16.944Z,14.80
2018-07-17T04:50:14.701Z,15.20
2018-07-17T04:52:43.763Z,15.40
2018-07-17T04:55:12.804Z,15.60
2018-07-17T04:57:41.871Z,15.60
2018-07-17T05:00:10.677Z,15.80
2018-07-17T05:02:39.743Z,15.90
2018-07-17T05:05:08.791Z,16.00
2018-07-17T05:07:37.966Z,16.30
2018-07-17T05:10:07.311Z,16.50
2018-07-17T05:15:05.320Z,16.70
2018-07-17T05:17:34.379Z,16.80
2018-07-17T05:22:32.361Z,17.00
2018-07-17T05:25:01.399Z,17.20
2018-07-17T05:27:30.459Z,17.40
2018-07-17T05:32:28.187Z,17.70
2018-07-17T05:34:57.223Z,17.80
2018-07-17T05:37:26.568Z,17.90
2018-07-17T05:39:55.613Z,18.00
2018-07-17T05:42:24.680Z,18.10
2018-07-17T05:44:53.755Z,18.30
2018-07-17T05:47:22.813Z,18.40
2018-07-17T05:49:51.851Z,18.50
2018-07-17T05:52:20.910Z,18.70
2018-07-17T05:57:18.688Z,19.00
2018-07-17T05:59:47.724Z,19.10
2018-07-17T06:02:16.780Z,19.20
2018-07-17T06:04:45.850Z,19.30
2018-07-17T06:07:14.911Z,19.50
2018-07-17T06:09:43.964Z,19.70
2018-07-17T06:12:13.019Z,19.70
2018-07-17T06:14:42.237Z,19.90
2018-07-17T06:17:11.363Z,20.00
2018-07-17T06:19:40.403Z,20.10
2018-07-17T06:22:09.513Z,20.20
2018-07-17T06:24:38.498Z,20.40
2018-07-17T06:27:07.580Z,20.50
2018-07-17T06:29:36.644Z,20.70
2018-07-17T06:34:34.391Z,21.10
2018-07-17T06:37:03.419Z,21.20
2018-07-17T06:42:01.135Z,21.50
2018-07-17T06:44:30.253Z,21.70
2018-07-17T06:46:59.475Z,21.80
2018-07-17T06:49:28.531Z,22.00
2018-07-17T06:51:57.559Z,22.10
2018-07-17T06:54:26.630Z,22.20
2018-07-17T06:56:55.753Z,22.40
2018-07-17T06:59:24.807Z,22.60
2018-07-17T07:01:53.847Z,22.70
2018-07-17T07:04:22.937Z,22.80
2018-07-17T07:06:52.040Z,23.00
2018-07-17T07:09:21.091Z,23.10
2018-07-17T07:11:50.160Z,23.30
2018-07-17T07:19:16.575Z,23.60
2018-07-17T07:21:45.611Z,23.70
2018-07-17T07:24:14.667Z,24.00
2018-07-17T07:26:43.711Z,24.00
2018-07-17T07:29:12.767Z,24.20
2018-07-17T07:31:41.840Z,24.40
2018-07-17T07:34:10.934Z,24.50
2018-07-17T07:36:39.984Z,24.60
2018-07-17T07:39:10.171Z,24.80
2018-07-17T07:41:39.253Z,24.90
2018-07-17T07:44:08.321Z,25.10
2018-07-17T07:49:06.144Z,25.30
2018-07-17T07:51:35.186Z,25.40
2018-07-17T07:54:04.260Z,25.60
2018-07-17T07:56:33.311Z,25.80
2018-07-17T07:59:02.385Z,26.00
2018-07-17T08:06:28.845Z,26.50
2018-07-17T08:08:57.918Z,26.60
2018-07-17T08:11:27.075Z,26.90
2018-07-17T08:13:56.147Z,27.00
2018-07-17T08:16:25.204Z,27.00
2018-07-17T08:18:54.340Z,27.20
2018-07-17T08:23:52.179Z,27.30
2018-07-17T08:26:21.239Z,27.20
2018-07-17T08:28:50.312Z,27.20
2018-07-17T08:36:17.772Z,27.40
2018-07-17T08:38:46.841Z,27.60
2018-07-17T08:41:15.903Z,27.40
2018-07-17T08:43:45.051Z,27.40
2018-07-17T08:46:14.059Z,27.50
2018-07-17T08:48:43.136Z,27.40
2018-07-17T08:51:12.213Z,27.60
2018-07-17T08:53:41.268Z,27.90
2018-07-17T08:56:10.337Z,28.00
2018-07-17T08:58:39.396Z,28.10
2018-07-17T09:01:08.723Z,28.20
2018-07-17T09:03:37.772Z,28.40
2018-07-17T09:08:35.520Z,28.50
2018-07-17T09:11:04.616Z,28.50
2018-07-17T09:13:33.668Z,28.70
2018-07-17T09:16:03.010Z,28.70
2018-07-17T09:18:32.096Z,28.80
2018-07-17T09:21:01.163Z,28.90
2018-07-17T09:23:30.224Z,28.90
2018-07-17T09:25:59.292Z,29.10
2018-07-17T09:28:28.370Z,29.30
2018-07-17T09:31:00.850Z,29.30
2018-07-17T09:33:30.982Z,29.50
2018-07-17T09:36:00.784Z,29.60
2018-07-17T09:38:30.380Z,29.40
2018-07-17T09:40:59.505Z,29.30
2018-07-17T09:43:28.563Z,29.30
2018-07-17T09:45:57.632Z,29.40
2018-07-17T09:50:55.397Z,29.70
2018-07-17T09:53:24.457Z,29.90
2018-07-17T09:55:53.527Z,29.90
2018-07-17T09:58:22.583Z,29.70
2018-07-17T10:01:58.019Z,29.30
2018-07-17T10:04:27.114Z,29.40
2018-07-17T10:06:56.189Z,29.60
2018-07-17T10:09:25.291Z,29.70
2018-07-17T10:11:54.406Z,30.00
2018-07-17T10:14:23.472Z,29.90
2018-07-17T10:16:52.544Z,29.90
2018-07-17T10:19:21.595Z,29.80
2018-07-17T10:21:50.665Z,29.60
2018-07-17T10:24:19.804Z,29.80
2018-07-17T10:26:48.869Z,29.90
2018-07-17T10:29:17.916Z,30.00
2018-07-17T10:34:15.676Z,29.90
2018-07-17T10:36:44.768Z,29.80
2018-07-17T10:39:13.844Z,30.20
2018-07-17T10:41:42.917Z,30.30
2018-07-17T10:44:11.972Z,30.30
2018-07-17T10:54:07.368Z,30.60
2018-07-17T10:56:36.432Z,30.80
2018-07-17T10:59:05.479Z,30.80
2018-07-17T11:01:34.598Z,30.70
2018-07-17T11:04:03.648Z,30.60
2018-07-17T11:06:32.715Z,31.00
2018-07-17T11:11:30.526Z,30.50
2018-07-17T11:13:59.576Z,30.60
2018-07-17T11:18:57.387Z,31.10
2018-07-17T11:21:26.460Z,31.30
2018-07-17T11:23:55.516Z,31.30
2018-07-17T11:26:24.607Z,31.50
2018-07-17T11:28:53.652Z,31.50
2018-07-17T11:31:22.719Z,31.40
2018-07-17T11:33:51.768Z,31.70
2018-07-17T11:36:20.844Z,31.90
2018-07-17T11:38:50.146Z,31.60
2018-07-17T11:41:19.117Z,31.60
2018-07-17T11:43:48.171Z,31.60
2018-07-17T11:46:17.244Z,31.60
2018-07-17T11:51:14.996Z,31.80
2018-07-17T11:53:45.115Z,31.50
2018-07-17T11:56:14.188Z,31.30
2018-07-17T11:58:43.240Z,31.30
2018-07-17T12:01:12.317Z,31.30
2018-07-17T12:03:41.363Z,31.30
2018-07-17T12:06:10.445Z,31.20
2018-07-17T12:08:39.509Z,31.30
2018-07-17T12:11:08.644Z,31.10
2018-07-17T12:13:37.696Z,31.50
2018-07-17T12:16:06.772Z,31.80
2018-07-17T12:18:35.827Z,31.90
2018-07-17T12:21:04.900Z,32.20
2018-07-17T12:26:02.650Z,32.30
2018-07-17T12:28:31.711Z,32.50
2018-07-17T12:31:00.785Z,32.60
2018-07-17T12:35:58.592Z,32.30
2018-07-17T12:38:27.700Z,32.60
2018-07-17T12:40:56.758Z,32.80
2018-07-17T12:45:54.541Z,32.70
2018-07-17T12:50:52.436Z,32.00
2018-07-17T12:53:21.585Z,32.30
2018-07-17T12:55:50.648Z,33.80
2018-07-17T12:58:19.724Z,34.60
2018-07-17T13:00:48.781Z,35.50
2018-07-17T13:03:17.859Z,35.30
2018-07-17T13:05:46.916Z,35.80
2018-07-17T13:08:15.988Z,36.40
2018-07-17T13:15:42.476Z,36.30
2018-07-17T13:18:11.559Z,36.40
2018-07-17T13:23:09.384Z,36.60
2018-07-17T13:25:38.585Z,35.90
2018-07-17T13:28:07.656Z,36.60
2018-07-17T13:30:36.700Z,35.50
2018-07-17T13:33:05.779Z,34.60
2018-07-17T13:35:34.837Z,35.10
2018-07-17T13:40:32.620Z,36.40
2018-07-17T13:45:30.744Z,34.90
2018-07-17T13:47:59.807Z,35.20
2018-07-17T13:52:57.600Z,35.30
2018-07-17T13:55:26.738Z,34.70
2018-07-17T13:57:55.797Z,34.10
2018-07-17T14:00:24.853Z,33.90
2018-07-17T14:02:53.924Z,35.30
2018-07-17T14:05:22.994Z,36.30
2018-07-17T14:07:52.073Z,36.60
2018-07-17T14:10:21.139Z,36.70
2018-07-17T14:12:50.237Z,36.60
2018-07-17T14:15:19.296Z,36.10
2018-07-17T14:17:48.364Z,35.80
2018-07-17T14:20:17.425Z,35.20
2018-07-17T14:22:46.487Z,35.60
2018-07-17T14:25:15.548Z,36.00
2018-07-17T14:27:44.620Z,36.80
2018-07-17T14:40:15.516Z,38.00
2018-07-17T14:42:44.593Z,37.60
2018-07-17T14:45:13.650Z,36.40
2018-07-17T14:47:42.719Z,36.80
2018-07-17T14:50:11.815Z,37.00
2018-07-17T14:55:10.976Z,37.20
2018-07-17T14:57:40.500Z,36.20
2018-07-17T15:00:10.408Z,35.00
2018-07-17T15:02:39.725Z,36.10
2018-07-17T15:05:09.740Z,37.10
2018-07-17T15:07:39.034Z,36.30
2018-07-17T15:10:08.524Z,36.00
2018-07-17T15:12:37.600Z,36.10
2018-07-17T15:15:07.129Z,37.00
2018-07-17T15:17:36.184Z,38.80
2018-07-17T15:25:03.021Z,37.70
2018-07-17T15:27:32.134Z,37.70
2018-07-17T15:30:01.212Z,37.90
2018-07-17T15:32:30.264Z,37.60
2018-07-17T15:34:59.345Z,37.60
2018-07-17T15:37:28.440Z,37.00
2018-07-17T15:39:57.551Z,37.40
2018-07-17T15:44:55.396Z,38.30
2018-07-17T15:47:24.447Z,39.40
2018-07-17T15:49:53.520Z,38.40
2018-07-17T15:54:51.307Z,37.40
2018-07-17T15:59:49.229Z,35.90
2018-07-17T16:02:18.317Z,35.00
2018-07-17T16:04:47.387Z,33.80
2018-07-17T16:09:45.148Z,32.20
2018-07-17T16:12:14.205Z,34.80
2018-07-17T16:14:43.281Z,36.20
2018-07-17T16:17:12.500Z,36.60
2018-07-17T16:19:41.573Z,36.50
2018-07-17T16:22:10.624Z,37.20
2018-07-17T16:24:39.724Z,36.90
2018-07-17T16:27:08.784Z,37.30
2018-07-17T16:29:37.906Z,36.70
2018-07-17T16:32:07.164Z,34.90
2018-07-17T16:34:36.233Z,33.80
2018-07-17T16:39:34.276Z,35.10
2018-07-17T16:42:03.420Z,35.50
2018-07-17T16:49:30.069Z,37.30
2018-07-17T16:51:59.587Z,36.00
2018-07-17T16:54:28.666Z,34.10
2018-07-17T16:56:57.836Z,34.00
2018-07-17T16:59:26.917Z,34.90
2018-07-17T17:01:55.974Z,33.50
2018-07-17T17:04:25.040Z,32.90
2018-07-17T17:06:54.095Z,33.40
2018-07-17T17:11:51.863Z,33.90
2018-07-17T17:19:18.301Z,35.70
2018-07-17T17:21:47.398Z,35.50
2018-07-17T17:24:16.594Z,35.30
2018-07-17T17:26:45.987Z,35.00
2018-07-17T17:29:15.116Z,35.40
2018-07-17T17:31:44.164Z,35.80
2018-07-17T17:34:13.246Z,35.70
2018-07-17T17:36:42.385Z,36.10
2018-07-17T17:39:11.984Z,35.40
2018-07-17T17:41:41.094Z,35.90
2018-07-17T17:44:10.196Z,34.70
2018-07-17T17:46:39.247Z,35.30
2018-07-17T17:49:08.300Z,35.10
2018-07-17T17:51:37.415Z,35.10
2018-07-17T17:56:35.256Z,35.10
2018-07-17T17:59:04.311Z,35.00
2018-07-17T18:01:33.455Z,34.60
2018-07-17T18:04:02.539Z,34.10
2018-07-17T18:06:31.616Z,33.90
2018-07-17T18:09:00.662Z,34.10
2018-07-17T18:11:29.747Z,34.20
2018-07-17T18:13:58.791Z,33.90
2018-07-17T18:16:27.937Z,33.40
2018-07-17T18:18:56.996Z,33.10
2018-07-17T18:21:26.078Z,33.30
2018-07-17T18:23:55.131Z,33.40
2018-07-17T18:26:24.214Z,33.10
2018-07-17T18:28:53.272Z,33.20
2018-07-17T18:31:22.345Z,33.10
2018-07-17T18:41:17.511Z,32.90
2018-07-17T18:48:47.295Z,31.80
2018-07-17T18:51:17.021Z,31.40
2018-07-17T18:53:47.233Z,30.70
2018-07-17T18:56:16.319Z,30.10
2018-07-17T18:58:45.424Z,29.50
2018-07-17T19:01:14.501Z,29.00
2018-07-17T19:03:43.587Z,28.60
2018-07-17T19:06:12.661Z,28.20
2018-07-17T19:11:10.809Z,27.80
2018-07-17T19:13:39.864Z,27.60
2018-07-17T19:16:08.942Z,27.50
2018-07-17T19:18:38.000Z,27.30
2018-07-17T19:21:07.151Z,27.20
2018-07-17T19:23:36.207Z,27.00
2018-07-17T19:26:05.372Z,26.90
2018-07-17T19:28:34.419Z,26.80
2018-07-17T19:31:03.489Z,26.70
2018-07-17T19:33:32.536Z,26.60
2018-07-17T19:36:01.612Z,26.50
2018-07-17T19:38:30.660Z,26.40
2018-07-17T19:40:59.735Z,26.20
2018-07-17T19:43:28.787Z,26.20
2018-07-17T19:45:57.869Z,26.00
2018-07-17T19:48:26.920Z,25.90
2018-07-17T19:50:55.991Z,25.70
2018-07-17T19:55:53.789Z,25.30
2018-07-17T20:08:18.181Z,24.50
2018-07-17T20:10:47.280Z,24.50
2018-07-17T20:13:16.360Z,24.40
2018-07-17T20:15:45.438Z,24.30
2018-07-17T20:18:14.488Z,24.30
2018-07-17T20:20:43.584Z,24.20
2018-07-17T20:23:12.872Z,24.20
2018-07-17T20:25:41.983Z,24.10
2018-07-17T20:28:11.068Z,24.00
2018-07-17T20:30:40.115Z,24.00
2018-07-17T20:33:09.180Z,24.00
2018-07-17T20:35:38.228Z,23.90
2018-07-17T20:38:07.297Z,23.90
2018-07-17T20:43:05.325Z,23.80
2018-07-17T20:45:34.448Z,23.70
2018-07-17T20:48:03.534Z,23.60
2018-07-17T20:50:32.584Z,23.50
2018-07-17T20:53:01.682Z,23.40
2018-07-17T20:55:30.946Z,23.40
2018-07-17T20:58:00.024Z,23.30
2018-07-17T21:00:29.079Z,23.20
2018-07-17T21:02:58.146Z,23.10
2018-07-17T21:05:27.196Z,23.10
2018-07-17T21:07:56.273Z,23.10
2018-07-17T21:10:25.364Z,23.00
2018-07-17T21:12:54.436Z,23.00
2018-07-17T21:15:23.484Z,22.90
2018-07-17T21:17:52.552Z,22.80
2018-07-17T21:20:21.604Z,22.70
2018-07-17T21:22:50.674Z,22.60
2018-07-17T21:25:19.749Z,22.50
2018-07-17T21:27:49.091Z,22.40
2018-07-17T21:30:18.144Z,22.30
2018-07-17T21:32:47.215Z,22.30
2018-07-17T21:35:16.260Z,22.30
2018-07-17T21:37:45.363Z,22.20
2018-07-17T21:40:14.472Z,22.10
2018-07-17T21:42:49.254Z,22.10
2018-07-17T21:45:18.298Z,22.00
2018-07-17T21:47:47.372Z,21.90
2018-07-17T21:50:16.429Z,21.80
2018-07-17T21:55:14.216Z,21.60
2018-07-17T22:00:11.980Z,21.30
2018-07-17T22:02:41.052Z,21.10
2018-07-17T22:05:10.104Z,20.90
2018-07-17T22:07:39.181Z,20.60
2018-07-17T22:12:36.967Z,20.30
2018-07-17T22:15:06.040Z,20.30
2018-07-17T22:20:04.077Z,20.90
2018-07-17T22:22:33.188Z,20.80
2018-07-17T22:25:02.237Z,21.10
2018-07-17T22:30:00.017Z,21.20
2018-07-17T22:34:57.768Z,21.30
2018-07-17T22:37:26.832Z,21.40
2018-07-17T22:39:55.879Z,21.40
2018-07-17T22:42:24.948Z,21.50
2018-07-17T22:44:54.012Z,21.30
2018-07-17T22:47:23.077Z,21.00
2018-07-17T22:49:52.123Z,20.70
2018-07-17T22:52:21.195Z,20.40
2018-07-17T22:54:50.247Z,20.30
2018-07-17T22:57:19.291Z,20.10
2018-07-17T22:59:48.361Z,19.90
2018-07-17T23:02:17.542Z,19.70
2018-07-17T23:04:46.607Z,19.60
2018-07-17T23:07:15.651Z,19.50
2018-07-17T23:12:13.632Z,19.30
2018-07-17T23:14:42.676Z,19.20
2018-07-17T23:17:11.727Z,19.10
2018-07-17T23:19:40.793Z,19.00
2018-07-17T23:22:09.849Z,19.20
2018-07-17T23:24:38.920Z,19.40
2018-07-17T23:29:36.664Z,19.50
2018-07-17T23:32:05.703Z,19.70
2018-07-17T23:37:03.549Z,20.00
2018-07-17T23:39:32.620Z,20.00
2018-07-17T23:42:01.673Z,20.10
2018-07-17T23:46:59.453Z,20.10
2018-07-17T23:49:33.835Z,20.10
2018-07-17T23:52:02.880Z,20.30
2018-07-17T23:57:00.952Z,20.40
2018-07-17T23:59:30.058Z,20.50
